sensor_id;sensor_type;location;lat;lon;timestamp;P1;durP1;ratioP1;P2;durP2;ratioP2
42066;SDS011;27734;47.028;28.820;2024-03-25T00:01:03;11.10;;;5.50;;
42066;SDS011;27734;47.028;28.820;2024-03-25T00:03:41;11.70;;;5.60;;
42066;SDS011;27734;47.028;28.820;2024-03-25T00:06:12;12.90;;;5.83;;
42066;SDS011;27734;47.028;28.820;2024-03-25T00:08:44;12.17;;;5.50;;
42066;SDS011;27734;47.028;28.820;2024-03-25T00:11:15;13.35;;;5.70;;
42066;SDS011;27734;47.028;28.820;2024-03-25T00:13:46;10.53;;;4.87;;
42066;SDS011;27734;47.028;28.820;2024-03-25T00:16:17;14.43;;;5.67;;
42066;SDS011;27734;47.028;28.820;2024-03-25T00:18:49;13.63;;;5.80;;
42066;SDS011;27734;47.028;28.820;2024-03-25T00:21:20;12.70;;;5.80;;
42066;SDS011;27734;47.028;28.820;2024-03-25T00:23:52;16.67;;;6.17;;
42066;SDS011;27734;47.028;28.820;2024-03-25T00:26:25;14.23;;;5.57;;
42066;SDS011;27734;47.028;28.820;2024-03-25T00:28:56;13.23;;;5.90;;
42066;SDS011;27734;47.028;28.820;2024-03-25T00:31:27;15.45;;;6.40;;
42066;SDS011;27734;47.028;28.820;2024-03-25T00:33:58;12.40;;;5.60;;
42066;SDS011;27734;47.028;28.820;2024-03-25T00:36:30;14.10;;;6.17;;
42066;SDS011;27734;47.028;28.820;2024-03-25T00:39:02;13.13;;;5.67;;
42066;SDS011;27734;47.028;28.820;2024-03-25T00:41:34;11.90;;;5.33;;
42066;SDS011;27734;47.028;28.820;2024-03-25T00:44:05;12.97;;;5.87;;
42066;SDS011;27734;47.028;28.820;2024-03-25T00:46:36;13.60;;;5.43;;
42066;SDS011;27734;47.028;28.820;2024-03-25T00:49:10;13.17;;;5.70;;
42066;SDS011;27734;47.028;28.820;2024-03-25T00:51:42;15.40;;;6.00;;
42066;SDS011;27734;47.028;28.820;2024-03-25T00:54:16;14.80;;;6.25;;
42066;SDS011;27734;47.028;28.820;2024-03-25T00:56:47;16.80;;;6.43;;
42066;SDS011;27734;47.028;28.820;2024-03-25T00:59:19;14.07;;;6.20;;
42066;SDS011;27734;47.028;28.820;2024-03-25T01:01:50;18.95;;;7.30;;
42066;SDS011;27734;47.028;28.820;2024-03-25T01:04:22;14.67;;;6.30;;
42066;SDS011;27734;47.028;28.820;2024-03-25T01:06:53;14.77;;;6.90;;
42066;SDS011;27734;47.028;28.820;2024-03-25T01:09:24;15.47;;;6.83;;
42066;SDS011;27734;47.028;28.820;2024-03-25T01:11:56;16.77;;;7.07;;
42066;SDS011;27734;47.028;28.820;2024-03-25T01:14:27;13.90;;;5.77;;
42066;SDS011;27734;47.028;28.820;2024-03-25T01:16:58;12.63;;;6.00;;
42066;SDS011;27734;47.028;28.820;2024-03-25T01:19:29;14.93;;;6.40;;
42066;SDS011;27734;47.028;28.820;2024-03-25T01:22:01;12.33;;;6.10;;
42066;SDS011;27734;47.028;28.820;2024-03-25T01:24:33;13.20;;;5.97;;
42066;SDS011;27734;47.028;28.820;2024-03-25T01:27:05;15.10;;;6.20;;
42066;SDS011;27734;47.028;28.820;2024-03-25T01:29:36;13.90;;;5.80;;
42066;SDS011;27734;47.028;28.820;2024-03-25T01:32:07;14.33;;;6.20;;
42066;SDS011;27734;47.028;28.820;2024-03-25T01:34:39;13.87;;;5.67;;
42066;SDS011;27734;47.028;28.820;2024-03-25T01:37:10;12.80;;;5.40;;
42066;SDS011;27734;47.028;28.820;2024-03-25T01:39:41;10.60;;;4.70;;
42066;SDS011;27734;47.028;28.820;2024-03-25T01:42:13;7.93;;;4.10;;
42066;SDS011;27734;47.028;28.820;2024-03-25T01:44:45;9.33;;;4.13;;
42066;SDS011;27734;47.028;28.820;2024-03-25T01:47:16;11.80;;;4.13;;
42066;SDS011;27734;47.028;28.820;2024-03-25T01:49:48;8.10;;;4.07;;
42066;SDS011;27734;47.028;28.820;2024-03-25T01:52:22;9.23;;;4.15;;
42066;SDS011;27734;47.028;28.820;2024-03-25T01:54:54;8.47;;;4.23;;
42066;SDS011;27734;47.028;28.820;2024-03-25T01:57:26;8.55;;;4.45;;
42066;SDS011;27734;47.028;28.820;2024-03-25T01:59:57;10.33;;;4.60;;
42066;SDS011;27734;47.028;28.820;2024-03-25T02:02:32;12.00;;;4.70;;
42066;SDS011;27734;47.028;28.820;2024-03-25T02:05:06;12.35;;;4.80;;
42066;SDS011;27734;47.028;28.820;2024-03-25T02:07:37;11.97;;;5.10;;
42066;SDS011;27734;47.028;28.820;2024-03-25T02:10:10;14.33;;;5.90;;
42066;SDS011;27734;47.028;28.820;2024-03-25T02:12:42;10.87;;;5.27;;
42066;SDS011;27734;47.028;28.820;2024-03-25T02:15:15;9.60;;;5.03;;
42066;SDS011;27734;47.028;28.820;2024-03-25T02:17:47;14.43;;;6.23;;
42066;SDS011;27734;47.028;28.820;2024-03-25T02:20:18;15.17;;;5.90;;
42066;SDS011;27734;47.028;28.820;2024-03-25T02:22:50;13.53;;;6.37;;
42066;SDS011;27734;47.028;28.820;2024-03-25T02:25:21;10.45;;;5.00;;
42066;SDS011;27734;47.028;28.820;2024-03-25T02:27:53;13.17;;;5.40;;
42066;SDS011;27734;47.028;28.820;2024-03-25T02:30:25;13.07;;;5.77;;
42066;SDS011;27734;47.028;28.820;2024-03-25T02:32:56;12.70;;;5.53;;
42066;SDS011;27734;47.028;28.820;2024-03-25T02:35:27;12.60;;;6.17;;
42066;SDS011;27734;47.028;28.820;2024-03-25T02:37:59;13.47;;;5.87;;
42066;SDS011;27734;47.028;28.820;2024-03-25T02:40:32;13.97;;;5.90;;
42066;SDS011;27734;47.028;28.820;2024-03-25T02:43:04;13.53;;;6.40;;
42066;SDS011;27734;47.028;28.820;2024-03-25T02:45:36;14.47;;;6.30;;
42066;SDS011;27734;47.028;28.820;2024-03-25T02:48:08;13.70;;;6.13;;
42066;SDS011;27734;47.028;28.820;2024-03-25T02:50:39;13.37;;;6.23;;
42066;SDS011;27734;47.028;28.820;2024-03-25T02:53:11;10.70;;;5.50;;
42066;SDS011;27734;47.028;28.820;2024-03-25T02:55:42;14.07;;;6.27;;
42066;SDS011;27734;47.028;28.820;2024-03-25T02:58:13;14.50;;;6.57;;
42066;SDS011;27734;47.028;28.820;2024-03-25T03:00:44;15.80;;;6.80;;
42066;SDS011;27734;47.028;28.820;2024-03-25T03:03:16;17.40;;;7.53;;
42066;SDS011;27734;47.028;28.820;2024-03-25T03:05:47;17.80;;;7.30;;
42066;SDS011;27734;47.028;28.820;2024-03-25T03:08:18;17.53;;;7.20;;
42066;SDS011;27734;47.028;28.820;2024-03-25T03:10:50;20.17;;;7.70;;
42066;SDS011;27734;47.028;28.820;2024-03-25T03:13:21;16.67;;;7.13;;
42066;SDS011;27734;47.028;28.820;2024-03-25T03:15:52;15.90;;;7.00;;
42066;SDS011;27734;47.028;28.820;2024-03-25T03:18:24;16.53;;;7.27;;
42066;SDS011;27734;47.028;28.820;2024-03-25T03:20:55;16.57;;;7.43;;
42066;SDS011;27734;47.028;28.820;2024-03-25T03:23:27;16.40;;;7.37;;
42066;SDS011;27734;47.028;28.820;2024-03-25T03:25:59;16.43;;;7.27;;
42066;SDS011;27734;47.028;28.820;2024-03-25T03:28:30;17.30;;;7.17;;
42066;SDS011;27734;47.028;28.820;2024-03-25T03:31:01;16.63;;;7.43;;
42066;SDS011;27734;47.028;28.820;2024-03-25T03:33:33;16.60;;;7.80;;
42066;SDS011;27734;47.028;28.820;2024-03-25T03:36:05;18.70;;;7.70;;
42066;SDS011;27734;47.028;28.820;2024-03-25T03:38:37;19.93;;;7.93;;
42066;SDS011;27734;47.028;28.820;2024-03-25T03:41:08;19.33;;;7.70;;
42066;SDS011;27734;47.028;28.820;2024-03-25T03:43:40;19.13;;;7.90;;
42066;SDS011;27734;47.028;28.820;2024-03-25T03:46:11;20.13;;;9.07;;
42066;SDS011;27734;47.028;28.820;2024-03-25T03:48:42;21.50;;;9.20;;
42066;SDS011;27734;47.028;28.820;2024-03-25T03:51:14;22.37;;;10.13;;
42066;SDS011;27734;47.028;28.820;2024-03-25T03:53:45;26.80;;;11.07;;
42066;SDS011;27734;47.028;28.820;2024-03-25T03:56:16;24.80;;;10.63;;
42066;SDS011;27734;47.028;28.820;2024-03-25T03:58:48;22.70;;;9.60;;
42066;SDS011;27734;47.028;28.820;2024-03-25T04:01:19;20.20;;;8.40;;
42066;SDS011;27734;47.028;28.820;2024-03-25T04:03:50;17.80;;;7.40;;
42066;SDS011;27734;47.028;28.820;2024-03-25T04:06:22;18.27;;;7.03;;
42066;SDS011;27734;47.028;28.820;2024-03-25T04:08:54;17.47;;;7.20;;
42066;SDS011;27734;47.028;28.820;2024-03-25T04:11:25;18.07;;;7.70;;
42066;SDS011;27734;47.028;28.820;2024-03-25T04:13:57;16.27;;;6.93;;
42066;SDS011;27734;47.028;28.820;2024-03-25T04:16:28;16.17;;;7.00;;
42066;SDS011;27734;47.028;28.820;2024-03-25T04:18:59;15.80;;;6.73;;
42066;SDS011;27734;47.028;28.820;2024-03-25T04:21:31;13.20;;;5.60;;
42066;SDS011;27734;47.028;28.820;2024-03-25T04:24:03;13.50;;;5.83;;
42066;SDS011;27734;47.028;28.820;2024-03-25T04:26:34;14.90;;;5.43;;
42066;SDS011;27734;47.028;28.820;2024-03-25T04:29:06;15.07;;;5.43;;
42066;SDS011;27734;47.028;28.820;2024-03-25T04:31:37;13.13;;;5.67;;
42066;SDS011;27734;47.028;28.820;2024-03-25T04:34:09;12.75;;;5.75;;
42066;SDS011;27734;47.028;28.820;2024-03-25T04:36:41;14.37;;;5.97;;
42066;SDS011;27734;47.028;28.820;2024-03-25T04:39:12;11.13;;;5.10;;
42066;SDS011;27734;47.028;28.820;2024-03-25T04:41:43;12.07;;;5.47;;
42066;SDS011;27734;47.028;28.820;2024-03-25T04:44:13;10.60;;;5.05;;
42066;SDS011;27734;47.028;28.820;2024-03-25T04:46:43;8.80;;;4.83;;
42066;SDS011;27734;47.028;28.820;2024-03-25T04:49:13;9.67;;;4.90;;
42066;SDS011;27734;47.028;28.820;2024-03-25T04:51:44;9.60;;;4.80;;
42066;SDS011;27734;47.028;28.820;2024-03-25T04:54:14;8.60;;;4.57;;
42066;SDS011;27734;47.028;28.820;2024-03-25T04:56:44;7.77;;;4.03;;
42066;SDS011;27734;47.028;28.820;2024-03-25T04:59:15;10.77;;;5.20;;
42066;SDS011;27734;47.028;28.820;2024-03-25T05:01:45;11.17;;;4.70;;
42066;SDS011;27734;47.028;28.820;2024-03-25T05:04:16;8.37;;;4.10;;
42066;SDS011;27734;47.028;28.820;2024-03-25T05:06:46;8.10;;;4.10;;
42066;SDS011;27734;47.028;28.820;2024-03-25T05:09:16;8.00;;;4.27;;
42066;SDS011;27734;47.028;28.820;2024-03-25T05:11:47;9.43;;;4.60;;
42066;SDS011;27734;47.028;28.820;2024-03-25T05:14:17;8.00;;;4.03;;
42066;SDS011;27734;47.028;28.820;2024-03-25T05:16:48;10.33;;;4.47;;
42066;SDS011;27734;47.028;28.820;2024-03-25T05:19:18;11.03;;;5.07;;
42066;SDS011;27734;47.028;28.820;2024-03-25T05:21:48;22.13;;;9.37;;
42066;SDS011;27734;47.028;28.820;2024-03-25T05:24:19;20.30;;;8.73;;
42066;SDS011;27734;47.028;28.820;2024-03-25T05:26:51;22.53;;;9.07;;
42066;SDS011;27734;47.028;28.820;2024-03-25T05:29:21;23.10;;;8.50;;
42066;SDS011;27734;47.028;28.820;2024-03-25T05:31:58;19.97;;;7.93;;
42066;SDS011;27734;47.028;28.820;2024-03-25T05:34:29;21.75;;;8.90;;
42066;SDS011;27734;47.028;28.820;2024-03-25T05:37:00;17.27;;;7.23;;
42066;SDS011;27734;47.028;28.820;2024-03-25T05:39:30;21.50;;;8.00;;
42066;SDS011;27734;47.028;28.820;2024-03-25T05:42:00;12.70;;;5.67;;
42066;SDS011;27734;47.028;28.820;2024-03-25T05:44:31;13.30;;;5.90;;
42066;SDS011;27734;47.028;28.820;2024-03-25T05:47:01;12.27;;;5.50;;
42066;SDS011;27734;47.028;28.820;2024-03-25T05:49:32;7.97;;;4.07;;
42066;SDS011;27734;47.028;28.820;2024-03-25T05:52:02;7.40;;;4.20;;
42066;SDS011;27734;47.028;28.820;2024-03-25T05:54:33;11.90;;;5.40;;
42066;SDS011;27734;47.028;28.820;2024-03-25T05:57:04;11.43;;;4.77;;
42066;SDS011;27734;47.028;28.820;2024-03-25T05:59:35;7.90;;;4.20;;
42066;SDS011;27734;47.028;28.820;2024-03-25T06:02:05;7.43;;;4.07;;
42066;SDS011;27734;47.028;28.820;2024-03-25T06:04:36;6.73;;;3.70;;
42066;SDS011;27734;47.028;28.820;2024-03-25T06:07:06;7.33;;;3.70;;
42066;SDS011;27734;47.028;28.820;2024-03-25T06:09:37;5.85;;;3.70;;
42066;SDS011;27734;47.028;28.820;2024-03-25T06:12:07;9.80;;;4.97;;
42066;SDS011;27734;47.028;28.820;2024-03-25T06:14:38;9.40;;;4.47;;
42066;SDS011;27734;47.028;28.820;2024-03-25T06:17:08;7.60;;;3.73;;
42066;SDS011;27734;47.028;28.820;2024-03-25T06:19:38;6.80;;;2.93;;
42066;SDS011;27734;47.028;28.820;2024-03-25T06:22:09;6.15;;;3.40;;
42066;SDS011;27734;47.028;28.820;2024-03-25T06:24:40;5.77;;;3.30;;
42066;SDS011;27734;47.028;28.820;2024-03-25T06:27:10;6.77;;;3.40;;
42066;SDS011;27734;47.028;28.820;2024-03-25T06:29:41;7.13;;;4.30;;
42066;SDS011;27734;47.028;28.820;2024-03-25T06:32:15;11.70;;;4.77;;
42066;SDS011;27734;47.028;28.820;2024-03-25T06:35:05;10.80;;;4.83;;
42066;SDS011;27734;47.028;28.820;2024-03-25T06:37:36;10.40;;;4.83;;
42066;SDS011;27734;47.028;28.820;2024-03-25T06:40:07;11.40;;;4.87;;
42066;SDS011;27734;47.028;28.820;2024-03-25T06:42:41;13.23;;;5.17;;
42066;SDS011;27734;47.028;28.820;2024-03-25T06:45:11;7.87;;;4.33;;
42066;SDS011;27734;47.028;28.820;2024-03-25T06:47:42;9.87;;;4.67;;
42066;SDS011;27734;47.028;28.820;2024-03-25T06:50:16;12.07;;;5.10;;
42066;SDS011;27734;47.028;28.820;2024-03-25T06:52:49;16.37;;;6.10;;
42066;SDS011;27734;47.028;28.820;2024-03-25T06:55:20;13.20;;;5.90;;
42066;SDS011;27734;47.028;28.820;2024-03-25T06:57:51;12.30;;;5.85;;
42066;SDS011;27734;47.028;28.820;2024-03-25T07:00:24;9.63;;;4.73;;
42066;SDS011;27734;47.028;28.820;2024-03-25T07:02:55;13.53;;;6.23;;
42066;SDS011;27734;47.028;28.820;2024-03-25T07:05:28;15.37;;;7.27;;
42066;SDS011;27734;47.028;28.820;2024-03-25T07:07:58;17.50;;;7.20;;
42066;SDS011;27734;47.028;28.820;2024-03-25T07:10:29;14.77;;;6.40;;
42066;SDS011;27734;47.028;28.820;2024-03-25T07:12:59;15.17;;;6.50;;
42066;SDS011;27734;47.028;28.820;2024-03-25T07:15:31;13.17;;;6.47;;
42066;SDS011;27734;47.028;28.820;2024-03-25T07:18:01;15.77;;;6.73;;
42066;SDS011;27734;47.028;28.820;2024-03-25T07:20:33;15.07;;;5.70;;
42066;SDS011;27734;47.028;28.820;2024-03-25T07:23:06;19.92;;;8.55;;
42066;SDS011;27734;47.028;28.820;2024-03-25T07:25:39;19.03;;;8.43;;
42066;SDS011;27734;47.028;28.820;2024-03-25T07:28:11;16.50;;;7.77;;
42066;SDS011;27734;47.028;28.820;2024-03-25T07:30:42;16.03;;;7.17;;
42066;SDS011;27734;47.028;28.820;2024-03-25T07:33:13;14.77;;;6.63;;
42066;SDS011;27734;47.028;28.820;2024-03-25T07:35:45;14.77;;;6.53;;
42066;SDS011;27734;47.028;28.820;2024-03-25T07:38:16;13.30;;;5.80;;
42066;SDS011;27734;47.028;28.820;2024-03-25T07:40:46;13.67;;;5.83;;
42066;SDS011;27734;47.028;28.820;2024-03-25T07:43:17;16.37;;;6.80;;
42066;SDS011;27734;47.028;28.820;2024-03-25T07:45:47;12.73;;;6.27;;
42066;SDS011;27734;47.028;28.820;2024-03-25T07:48:18;15.40;;;6.20;;
42066;SDS011;27734;47.028;28.820;2024-03-25T07:50:51;9.70;;;5.37;;
42066;SDS011;27734;47.028;28.820;2024-03-25T07:53:22;12.50;;;5.97;;
42066;SDS011;27734;47.028;28.820;2024-03-25T07:55:52;14.87;;;6.70;;
42066;SDS011;27734;47.028;28.820;2024-03-25T07:58:25;16.97;;;8.13;;
42066;SDS011;27734;47.028;28.820;2024-03-25T08:00:56;15.67;;;7.40;;
42066;SDS011;27734;47.028;28.820;2024-03-25T08:03:27;15.10;;;7.10;;
42066;SDS011;27734;47.028;28.820;2024-03-25T08:05:58;14.07;;;6.90;;
42066;SDS011;27734;47.028;28.820;2024-03-25T08:08:29;11.70;;;5.80;;
42066;SDS011;27734;47.028;28.820;2024-03-25T08:11:01;10.67;;;5.53;;
42066;SDS011;27734;47.028;28.820;2024-03-25T08:13:33;10.83;;;5.30;;
42066;SDS011;27734;47.028;28.820;2024-03-25T08:16:06;10.63;;;4.70;;
42066;SDS011;27734;47.028;28.820;2024-03-25T08:18:38;9.53;;;4.30;;
42066;SDS011;27734;47.028;28.820;2024-03-25T08:21:12;10.23;;;5.00;;
42066;SDS011;27734;47.028;28.820;2024-03-25T08:23:45;13.23;;;6.00;;
42066;SDS011;27734;47.028;28.820;2024-03-25T08:26:19;11.87;;;6.00;;
42066;SDS011;27734;47.028;28.820;2024-03-25T08:28:49;12.73;;;6.00;;
42066;SDS011;27734;47.028;28.820;2024-03-25T08:31:21;15.13;;;6.20;;
42066;SDS011;27734;47.028;28.820;2024-03-25T08:34:07;14.40;;;5.75;;
42066;SDS011;27734;47.028;28.820;2024-03-25T08:36:38;15.38;;;5.85;;
42066;SDS011;27734;47.028;28.820;2024-03-25T08:39:17;13.57;;;5.17;;
42066;SDS011;27734;47.028;28.820;2024-03-25T08:41:55;17.00;;;6.13;;
42066;SDS011;27734;47.028;28.820;2024-03-25T08:44:29;15.33;;;6.30;;
42066;SDS011;27734;47.028;28.820;2024-03-25T08:48:26;12.30;;;5.83;;
42066;SDS011;27734;47.028;28.820;2024-03-25T08:50:56;14.20;;;6.40;;
42066;SDS011;27734;47.028;28.820;2024-03-25T08:56:55;14.60;;;6.50;;
42066;SDS011;27734;47.028;28.820;2024-03-25T08:59:31;15.50;;;7.33;;
42066;SDS011;27734;47.028;28.820;2024-03-25T09:02:11;14.30;;;6.63;;
42066;SDS011;27734;47.028;28.820;2024-03-25T09:04:43;15.07;;;6.33;;
42066;SDS011;27734;47.028;28.820;2024-03-25T09:07:15;16.60;;;6.97;;
42066;SDS011;27734;47.028;28.820;2024-03-25T09:09:49;13.97;;;7.00;;
42066;SDS011;27734;47.028;28.820;2024-03-25T09:12:40;14.33;;;6.57;;
42066;SDS011;27734;47.028;28.820;2024-03-25T09:15:11;17.43;;;7.20;;
42066;SDS011;27734;47.028;28.820;2024-03-25T09:17:42;15.93;;;7.37;;
42066;SDS011;27734;47.028;28.820;2024-03-25T09:20:13;15.80;;;6.80;;
42066;SDS011;27734;47.028;28.820;2024-03-25T09:22:44;15.33;;;7.07;;
42066;SDS011;27734;47.028;28.820;2024-03-25T09:25:16;16.57;;;7.23;;
42066;SDS011;27734;47.028;28.820;2024-03-25T09:27:49;16.40;;;7.33;;
42066;SDS011;27734;47.028;28.820;2024-03-25T09:30:26;18.17;;;8.27;;
42066;SDS011;27734;47.028;28.820;2024-03-25T09:32:57;17.97;;;8.37;;
42066;SDS011;27734;47.028;28.820;2024-03-25T09:35:27;20.13;;;7.90;;
42066;SDS011;27734;47.028;28.820;2024-03-25T09:37:58;16.37;;;7.43;;
42066;SDS011;27734;47.028;28.820;2024-03-25T09:40:34;17.73;;;8.13;;
42066;SDS011;27734;47.028;28.820;2024-03-25T09:43:11;19.03;;;8.63;;
42066;SDS011;27734;47.028;28.820;2024-03-25T09:45:49;20.17;;;9.47;;
42066;SDS011;27734;47.028;28.820;2024-03-25T09:48:20;22.10;;;9.30;;
42066;SDS011;27734;47.028;28.820;2024-03-25T09:50:51;20.20;;;8.93;;
42066;SDS011;27734;47.028;28.820;2024-03-25T09:53:24;19.57;;;8.13;;
42066;SDS011;27734;47.028;28.820;2024-03-25T09:55:55;18.13;;;8.67;;
42066;SDS011;27734;47.028;28.820;2024-03-25T09:58:29;20.77;;;9.55;;
42066;SDS011;27734;47.028;28.820;2024-03-25T10:01:04;20.33;;;9.47;;
42066;SDS011;27734;47.028;28.820;2024-03-25T10:03:35;22.47;;;9.57;;
42066;SDS011;27734;47.028;28.820;2024-03-25T10:06:07;21.73;;;9.77;;
42066;SDS011;27734;47.028;28.820;2024-03-25T10:08:39;17.57;;;9.33;;
42066;SDS011;27734;47.028;28.820;2024-03-25T10:11:14;21.43;;;9.87;;
42066;SDS011;27734;47.028;28.820;2024-03-25T10:13:47;19.75;;;9.05;;
42066;SDS011;27734;47.028;28.820;2024-03-25T10:16:18;21.27;;;10.27;;
42066;SDS011;27734;47.028;28.820;2024-03-25T10:18:53;20.25;;;10.55;;
42066;SDS011;27734;47.028;28.820;2024-03-25T10:21:24;20.77;;;10.77;;
42066;SDS011;27734;47.028;28.820;2024-03-25T10:23:55;21.73;;;10.87;;
42066;SDS011;27734;47.028;28.820;2024-03-25T10:26:27;20.27;;;10.67;;
42066;SDS011;27734;47.028;28.820;2024-03-25T10:29:02;22.93;;;11.27;;
42066;SDS011;27734;47.028;28.820;2024-03-25T10:31:43;21.27;;;10.63;;
42066;SDS011;27734;47.028;28.820;2024-03-25T10:34:13;19.77;;;10.30;;
42066;SDS011;27734;47.028;28.820;2024-03-25T10:36:43;18.70;;;9.45;;
42066;SDS011;27734;47.028;28.820;2024-03-25T10:39:14;19.33;;;9.87;;
42066;SDS011;27734;47.028;28.820;2024-03-25T10:41:47;19.57;;;9.13;;
42066;SDS011;27734;47.028;28.820;2024-03-25T10:44:17;18.83;;;10.10;;
42066;SDS011;27734;47.028;28.820;2024-03-25T10:46:53;18.67;;;9.10;;
42066;SDS011;27734;47.028;28.820;2024-03-25T10:49:32;18.13;;;9.17;;
42066;SDS011;27734;47.028;28.820;2024-03-25T10:52:09;18.87;;;8.80;;
42066;SDS011;27734;47.028;28.820;2024-03-25T10:54:45;17.62;;;8.73;;
42066;SDS011;27734;47.028;28.820;2024-03-25T10:57:17;17.35;;;8.50;;
42066;SDS011;27734;47.028;28.820;2024-03-25T10:59:49;18.10;;;8.63;;
42066;SDS011;27734;47.028;28.820;2024-03-25T11:02:22;18.35;;;8.55;;
42066;SDS011;27734;47.028;28.820;2024-03-25T11:04:53;17.87;;;8.57;;
42066;SDS011;27734;47.028;28.820;2024-03-25T11:07:30;14.00;;;6.63;;
42066;SDS011;27734;47.028;28.820;2024-03-25T11:10:05;17.40;;;7.37;;
42066;SDS011;27734;47.028;28.820;2024-03-25T11:12:36;16.43;;;7.53;;
42066;SDS011;27734;47.028;28.820;2024-03-25T11:15:11;16.43;;;8.10;;
42066;SDS011;27734;47.028;28.820;2024-03-25T11:17:49;17.23;;;7.50;;
42066;SDS011;27734;47.028;28.820;2024-03-25T11:20:19;15.77;;;7.53;;
42066;SDS011;27734;47.028;28.820;2024-03-25T11:22:51;16.90;;;8.10;;
42066;SDS011;27734;47.028;28.820;2024-03-25T11:25:23;14.77;;;6.90;;
42066;SDS011;27734;47.028;28.820;2024-03-25T11:27:54;14.60;;;6.85;;
42066;SDS011;27734;47.028;28.820;2024-03-25T11:30:27;11.97;;;6.12;;
42066;SDS011;27734;47.028;28.820;2024-03-25T11:33:01;16.27;;;7.67;;
42066;SDS011;27734;47.028;28.820;2024-03-25T11:35:38;16.63;;;7.63;;
42066;SDS011;27734;47.028;28.820;2024-03-25T11:38:42;18.50;;;7.70;;
42066;SDS011;27734;47.028;28.820;2024-03-25T11:41:15;15.67;;;7.57;;
42066;SDS011;27734;47.028;28.820;2024-03-25T11:43:47;16.77;;;8.13;;
42066;SDS011;27734;47.028;28.820;2024-03-25T11:46:19;16.60;;;8.37;;
42066;SDS011;27734;47.028;28.820;2024-03-25T11:48:55;15.03;;;7.60;;
42066;SDS011;27734;47.028;28.820;2024-03-25T11:51:26;15.70;;;7.10;;
42066;SDS011;27734;47.028;28.820;2024-03-25T11:56:44;13.37;;;6.57;;
42066;SDS011;27734;47.028;28.820;2024-03-25T11:59:15;14.77;;;7.50;;
42066;SDS011;27734;47.028;28.820;2024-03-25T12:01:47;16.30;;;7.50;;
42066;SDS011;27734;47.028;28.820;2024-03-25T12:04:18;12.23;;;6.20;;
42066;SDS011;27734;47.028;28.820;2024-03-25T12:06:49;14.00;;;6.83;;
42066;SDS011;27734;47.028;28.820;2024-03-25T12:09:22;15.43;;;7.60;;
42066;SDS011;27734;47.028;28.820;2024-03-25T12:12:12;12.67;;;7.00;;
42066;SDS011;27734;47.028;28.820;2024-03-25T12:14:49;12.90;;;6.57;;
42066;SDS011;27734;47.028;28.820;2024-03-25T12:17:23;16.43;;;7.87;;
42066;SDS011;27734;47.028;28.820;2024-03-25T12:20:02;16.33;;;7.70;;
42066;SDS011;27734;47.028;28.820;2024-03-25T12:22:36;15.03;;;7.03;;
42066;SDS011;27734;47.028;28.820;2024-03-25T12:25:10;14.50;;;6.65;;
42066;SDS011;27734;47.028;28.820;2024-03-25T12:27:41;13.57;;;6.97;;
42066;SDS011;27734;47.028;28.820;2024-03-25T12:30:19;18.17;;;7.50;;
42066;SDS011;27734;47.028;28.820;2024-03-25T12:32:50;14.95;;;6.85;;
42066;SDS011;27734;47.028;28.820;2024-03-25T12:37:52;16.00;;;7.30;;
42066;SDS011;27734;47.028;28.820;2024-03-25T12:40:28;16.27;;;7.77;;
42066;SDS011;27734;47.028;28.820;2024-03-25T12:42:59;17.95;;;8.75;;
42066;SDS011;27734;47.028;28.820;2024-03-25T12:45:31;16.10;;;8.43;;
42066;SDS011;27734;47.028;28.820;2024-03-25T12:48:02;20.10;;;9.35;;
42066;SDS011;27734;47.028;28.820;2024-03-25T12:50:35;18.25;;;9.50;;
42066;SDS011;27734;47.028;28.820;2024-03-25T12:53:06;21.50;;;10.10;;
42066;SDS011;27734;47.028;28.820;2024-03-25T12:55:37;19.00;;;9.23;;
42066;SDS011;27734;47.028;28.820;2024-03-25T12:58:08;19.20;;;8.97;;
42066;SDS011;27734;47.028;28.820;2024-03-25T13:00:38;19.37;;;9.47;;
42066;SDS011;27734;47.028;28.820;2024-03-25T13:03:10;21.80;;;10.03;;
42066;SDS011;27734;47.028;28.820;2024-03-25T13:05:48;21.60;;;10.50;;
42066;SDS011;27734;47.028;28.820;2024-03-25T13:08:19;23.53;;;12.20;;
42066;SDS011;27734;47.028;28.820;2024-03-25T13:10:49;26.13;;;14.53;;
42066;SDS011;27734;47.028;28.820;2024-03-25T13:13:20;24.33;;;12.63;;
42066;SDS011;27734;47.028;28.820;2024-03-25T13:15:51;24.87;;;13.17;;
42066;SDS011;27734;47.028;28.820;2024-03-25T13:18:25;23.53;;;11.23;;
42066;SDS011;27734;47.028;28.820;2024-03-25T13:20:57;20.93;;;10.60;;
42066;SDS011;27734;47.028;28.820;2024-03-25T13:23:31;23.30;;;11.57;;
42066;SDS011;27734;47.028;28.820;2024-03-25T13:26:01;24.53;;;11.80;;
42066;SDS011;27734;47.028;28.820;2024-03-25T13:28:32;24.70;;;11.50;;
42066;SDS011;27734;47.028;28.820;2024-03-25T13:31:02;22.43;;;12.30;;
42066;SDS011;27734;47.028;28.820;2024-03-25T13:33:32;22.93;;;11.67;;
42066;SDS011;27734;47.028;28.820;2024-03-25T13:36:04;20.67;;;10.13;;
42066;SDS011;27734;47.028;28.820;2024-03-25T13:38:35;20.30;;;10.90;;
42066;SDS011;27734;47.028;28.820;2024-03-25T13:41:11;20.30;;;11.03;;
42066;SDS011;27734;47.028;28.820;2024-03-25T13:43:44;21.33;;;10.67;;
42066;SDS011;27734;47.028;28.820;2024-03-25T13:46:18;22.83;;;11.87;;
42066;SDS011;27734;47.028;28.820;2024-03-25T13:48:52;20.60;;;10.53;;
42066;SDS011;27734;47.028;28.820;2024-03-25T13:51:25;17.47;;;8.03;;
42066;SDS011;27734;47.028;28.820;2024-03-25T13:53:57;18.90;;;9.73;;
42066;SDS011;27734;47.028;28.820;2024-03-25T13:56:28;18.57;;;9.43;;
42066;SDS011;27734;47.028;28.820;2024-03-25T13:58:59;19.90;;;9.93;;
42066;SDS011;27734;47.028;28.820;2024-03-25T14:05:05;20.57;;;11.30;;
42066;SDS011;27734;47.028;28.820;2024-03-25T14:07:36;19.97;;;10.83;;
42066;SDS011;27734;47.028;28.820;2024-03-25T14:10:07;22.60;;;12.60;;
42066;SDS011;27734;47.028;28.820;2024-03-25T14:12:40;23.80;;;13.10;;
42066;SDS011;27734;47.028;28.820;2024-03-25T14:15:13;23.67;;;12.57;;
42066;SDS011;27734;47.028;28.820;2024-03-25T14:17:43;23.37;;;13.60;;
42066;SDS011;27734;47.028;28.820;2024-03-25T14:20:14;28.30;;;14.03;;
42066;SDS011;27734;47.028;28.820;2024-03-25T14:22:45;25.67;;;13.33;;
42066;SDS011;27734;47.028;28.820;2024-03-25T14:25:16;25.13;;;13.30;;
42066;SDS011;27734;47.028;28.820;2024-03-25T14:27:46;22.07;;;11.47;;
42066;SDS011;27734;47.028;28.820;2024-03-25T14:30:17;23.60;;;12.10;;
42066;SDS011;27734;47.028;28.820;2024-03-25T14:32:48;24.10;;;12.40;;
42066;SDS011;27734;47.028;28.820;2024-03-25T14:35:18;22.57;;;12.27;;
42066;SDS011;27734;47.028;28.820;2024-03-25T14:37:49;23.30;;;11.37;;
42066;SDS011;27734;47.028;28.820;2024-03-25T14:43:12;19.47;;;9.83;;
42066;SDS011;27734;47.028;28.820;2024-03-25T14:45:46;18.50;;;9.37;;
42066;SDS011;27734;47.028;28.820;2024-03-25T14:48:27;18.63;;;10.03;;
42066;SDS011;27734;47.028;28.820;2024-03-25T14:51:02;21.60;;;10.57;;
42066;SDS011;27734;47.028;28.820;2024-03-25T14:53:35;18.20;;;10.13;;
42066;SDS011;27734;47.028;28.820;2024-03-25T14:56:09;18.43;;;9.30;;
42066;SDS011;27734;47.028;28.820;2024-03-25T14:58:40;17.80;;;8.97;;
42066;SDS011;27734;47.028;28.820;2024-03-25T15:01:12;19.27;;;8.10;;
42066;SDS011;27734;47.028;28.820;2024-03-25T15:03:42;15.17;;;7.60;;
42066;SDS011;27734;47.028;28.820;2024-03-25T15:06:14;14.60;;;7.37;;